createdAt,value
2018-10-09T00:00:20.630Z,100849.09
2018-10-09T00:00:58.439Z,100850.72
2018-10-09T00:01:36.483Z,100853.15
2018-10-09T00:02:14.418Z,100855.32
2018-10-09T00:02:52.320Z,100858.56
2018-10-09T00:03:30.125Z,100857.52
2018-10-09T00:04:08.077Z,100862.09
2018-10-09T00:04:45.950Z,100868.81
2018-10-09T00:05:23.787Z,100868.27
2018-10-09T00:06:01.705Z,100871.51
2018-10-09T00:06:39.632Z,100866.39
2018-10-09T00:07:17.626Z,100865.04
2018-10-09T00:07:55.573Z,100867.22
2018-10-09T00:08:33.434Z,100868.83
2018-10-09T00:09:12.772Z,100863.98
2018-10-09T00:09:51.899Z,100875.02
2018-10-09T00:10:29.784Z,100869.08
2018-10-09T00:11:07.691Z,100871.77
2018-10-09T00:11:45.636Z,100875.55
2018-10-09T00:12:23.652Z,100871.51
2018-10-09T00:13:01.525Z,100877.17
2018-10-09T00:13:39.373Z,100880.41
2018-10-09T00:14:18.442Z,100881.75
2018-10-09T00:14:56.279Z,100881.48
2018-10-09T00:15:34.980Z,100882.83
2018-10-09T00:16:12.888Z,100883.64
2018-10-09T00:16:50.775Z,100883.09
2018-10-09T00:17:28.577Z,100883.91
2018-10-09T00:18:06.631Z,100883.08
2018-10-09T00:18:44.508Z,100888.77
2018-10-09T00:19:22.349Z,100886.86
2018-10-09T00:20:00.316Z,100889.82
2018-10-09T00:20:38.219Z,100889.80
2018-10-09T00:21:16.242Z,100891.93
2018-10-09T00:21:54.124Z,100889.75
2018-10-09T00:22:31.933Z,100888.66
2018-10-09T00:23:10.453Z,100887.28
2018-10-09T00:23:48.361Z,100892.09
2018-10-09T00:24:26.196Z,100891.25
2018-10-09T00:25:04.048Z,100889.64
2018-10-09T00:25:42.444Z,100892.05
2018-10-09T00:26:20.327Z,100888.81
2018-10-09T00:26:58.932Z,100890.72
2018-10-09T00:27:36.793Z,100888.55
2018-10-09T00:28:14.645Z,100894.73
2018-10-09T00:28:52.659Z,100891.20
2018-10-09T00:29:30.466Z,100891.99
2018-10-09T00:30:08.389Z,100892.25
2018-10-09T00:30:46.480Z,100897.10
2018-10-09T00:31:24.454Z,100894.95
2018-10-09T00:32:02.464Z,100895.47
2018-10-09T00:32:40.409Z,100893.56
2018-10-09T00:33:18.292Z,100894.36
2018-10-09T00:33:56.269Z,100894.62
2018-10-09T00:34:34.319Z,100895.70
2018-10-09T00:35:12.133Z,100896.78
2018-10-09T00:35:49.959Z,100898.13
2018-10-09T00:36:27.916Z,100900.00
2018-10-09T00:37:05.897Z,100899.47
2018-10-09T00:37:43.880Z,100902.16
2018-10-09T00:38:21.818Z,100905.64
2018-10-09T00:38:59.742Z,100901.62
2018-10-09T00:39:37.855Z,100909.95
2018-10-09T00:43:17.029Z,100906.80
2018-10-09T00:43:54.922Z,100905.70
2018-10-09T00:44:32.865Z,100902.69
2018-10-09T00:45:10.983Z,100906.71
2018-10-09T00:45:51.091Z,100908.61
2018-10-09T00:46:28.997Z,100914.50
2018-10-09T00:47:06.878Z,100912.84
2018-10-09T00:47:44.730Z,100909.28
2018-10-09T00:48:22.573Z,100910.61
2018-10-09T00:49:00.536Z,100914.32
2018-10-09T00:49:38.399Z,100919.41
2018-10-09T00:50:16.749Z,100917.48
2018-10-09T00:50:54.847Z,100920.67
2018-10-09T00:51:32.689Z,100923.05
2018-10-09T00:52:11.053Z,100921.94
2018-10-09T00:52:48.942Z,100932.73
2018-10-09T00:53:27.089Z,100928.63
2018-10-09T00:54:05.022Z,100926.95
2018-10-09T00:54:42.957Z,100927.99
2018-10-09T00:55:21.145Z,100930.38
2018-10-09T00:55:59.213Z,100920.11
2018-10-09T00:56:37.186Z,100934.33
2018-10-09T00:57:15.169Z,100929.70
2018-10-09T00:57:53.093Z,100932.08
2018-10-09T00:58:30.909Z,100932.55
2018-10-09T00:59:08.962Z,100928.69
2018-10-09T00:59:46.844Z,100935.92
2018-10-09T01:00:24.671Z,100935.34
2018-10-09T01:01:02.680Z,100932.05
2018-10-09T01:01:40.586Z,100924.74
2018-10-09T01:02:18.594Z,100933.36
2018-10-09T01:02:56.521Z,100936.50
2018-10-09T01:03:34.520Z,100932.41
2018-10-09T01:04:12.490Z,100935.58
2018-10-09T01:04:50.422Z,100938.25
2018-10-09T01:05:29.529Z,100933.64
2018-10-09T01:06:07.421Z,100943.62
2018-10-09T01:06:45.308Z,100940.61
2018-10-09T01:07:23.515Z,100944.38
2018-10-09T01:08:01.461Z,100943.24
2018-10-09T01:08:39.623Z,100947.47
2018-10-09T01:09:17.482Z,100946.88
2018-10-09T01:09:55.748Z,100944.10
2018-10-09T01:10:33.643Z,100940.84
2018-10-09T01:11:11.759Z,100947.55
2018-10-09T01:11:50.519Z,100944.50
2018-10-09T01:12:28.651Z,100950.42
2018-10-09T01:13:06.510Z,100953.64
2018-10-09T01:13:44.378Z,100948.52
2018-10-09T01:14:22.301Z,100951.44
2018-10-09T01:15:00.999Z,100955.75
2018-10-09T01:15:38.877Z,100956.25
2018-10-09T01:16:17.457Z,100957.34
2018-10-09T01:16:55.347Z,100953.50
2018-10-09T01:17:33.361Z,100958.83
2018-10-09T01:18:11.204Z,100948.00
2018-10-09T01:18:49.105Z,100959.49
2018-10-09T01:19:27.073Z,100955.64
2018-10-09T01:20:04.919Z,100958.84
2018-10-09T01:20:42.822Z,100955.09
2018-10-09T01:21:20.773Z,100962.63
2018-10-09T01:21:58.865Z,100955.24
2018-10-09T01:22:36.808Z,100957.52
2018-10-09T01:23:14.660Z,100962.72
2018-10-09T01:23:52.494Z,100955.16
2018-10-09T01:24:30.421Z,100958.92
2018-10-09T01:25:08.350Z,100961.54
2018-10-09T01:25:46.217Z,100964.71
2018-10-09T01:26:24.045Z,100961.16
2018-10-09T01:27:01.921Z,100960.52
2018-10-09T01:27:39.912Z,100961.48
2018-10-09T01:28:17.715Z,100959.45
2018-10-09T01:28:55.603Z,100960.84
2018-10-09T01:29:33.449Z,100959.16
2018-10-09T01:30:12.208Z,100959.09
2018-10-09T01:30:50.062Z,100957.91
2018-10-09T01:31:27.988Z,100962.72
2018-10-09T01:32:06.769Z,100960.95
2018-10-09T01:32:44.637Z,100962.06
2018-10-09T01:33:22.539Z,100960.81
2018-10-09T01:34:00.453Z,100956.30
2018-10-09T01:34:38.412Z,100961.55
2018-10-09T01:35:16.311Z,100958.14
2018-10-09T01:35:54.676Z,100959.84
2018-10-09T01:36:32.511Z,100958.31
2018-10-09T01:37:10.485Z,100960.01
2018-10-09T01:37:48.420Z,100958.31
2018-10-09T01:38:26.468Z,100960.64
2018-10-09T01:39:04.391Z,100961.35
2018-10-09T01:39:42.263Z,100959.69
2018-10-09T01:40:20.092Z,100965.81
2018-10-09T01:40:57.911Z,100962.97
2018-10-09T01:41:35.792Z,100964.77
2018-10-09T01:42:13.672Z,100965.55
2018-10-09T01:42:53.114Z,100964.11
2018-10-09T01:43:31.801Z,100964.06
2018-10-09T01:44:09.802Z,100959.09
2018-10-09T01:44:49.452Z,100964.16
2018-10-09T01:45:28.048Z,100962.14
2018-10-09T01:46:05.916Z,100968.56
2018-10-09T01:46:44.023Z,100967.11
2018-10-09T01:47:21.897Z,100964.39
2018-10-09T01:47:59.925Z,100969.22
2018-10-09T01:48:38.567Z,100974.03
2018-10-09T01:49:16.428Z,100972.32
2018-10-09T01:49:54.408Z,100970.92
2018-10-09T01:50:32.400Z,100972.53
2018-10-09T01:51:10.391Z,100965.75
2018-10-09T01:51:48.233Z,100967.55
2018-10-09T01:52:28.098Z,100970.71
2018-10-09T01:53:06.094Z,100963.27
2018-10-09T01:53:43.922Z,100968.45
2018-10-09T01:54:22.048Z,100968.22
2018-10-09T01:54:59.854Z,100970.77
2018-10-09T01:55:37.899Z,100971.27
2018-10-09T01:56:16.999Z,100966.63
2018-10-09T01:56:55.052Z,100971.63
2018-10-09T01:57:32.973Z,100971.46
2018-10-09T01:58:10.881Z,100971.11
2018-10-09T01:58:48.716Z,100965.61
2018-10-09T01:59:26.561Z,100964.45
2018-10-09T02:00:04.448Z,100973.33
2018-10-09T02:00:42.237Z,100965.63
2018-10-09T02:01:20.222Z,100973.91
2018-10-09T02:01:58.057Z,100965.69
2018-10-09T02:02:35.958Z,100966.63
2018-10-09T02:03:13.855Z,100968.69
2018-10-09T02:03:51.752Z,100965.86
2018-10-09T02:04:29.684Z,100961.77
2018-10-09T02:05:07.859Z,100963.00
2018-10-09T02:05:45.783Z,100964.55
2018-10-09T02:06:23.745Z,100967.44
2018-10-09T02:07:01.585Z,100968.25
2018-10-09T02:07:39.558Z,100965.04
2018-10-09T02:08:17.348Z,100964.67
2018-10-09T02:08:55.254Z,100965.53
2018-10-09T02:09:34.009Z,100968.25
2018-10-09T02:10:11.920Z,100963.87
2018-10-09T02:10:49.874Z,100965.41
2018-10-09T02:11:27.738Z,100962.88
2018-10-09T02:12:05.706Z,100964.21
2018-10-09T02:12:43.530Z,100964.09
2018-10-09T02:13:21.330Z,100960.75
2018-10-09T02:13:59.264Z,100961.48
2018-10-09T02:14:37.075Z,100962.72
2018-10-09T02:15:16.033Z,100964.84
2018-10-09T02:15:53.929Z,100966.66
2018-10-09T02:16:31.752Z,100958.08
2018-10-09T02:17:09.765Z,100959.37
2018-10-09T02:17:47.653Z,100960.66
2018-10-09T02:18:25.483Z,100959.80
2018-10-09T02:19:03.485Z,100960.52
2018-10-09T02:19:42.461Z,100961.84
2018-10-09T02:20:20.421Z,100958.44
2018-10-09T02:20:58.417Z,100966.28
2018-10-09T02:21:36.446Z,100965.72
2018-10-09T02:22:14.386Z,100958.93
2018-10-09T02:22:52.359Z,100963.38
2018-10-09T02:23:30.286Z,100960.91
2018-10-09T02:24:08.251Z,100963.88
2018-10-09T02:24:46.127Z,100963.31
2018-10-09T02:25:24.012Z,100959.80
2018-10-09T02:26:01.894Z,100967.08
2018-10-09T02:26:39.791Z,100969.48
2018-10-09T02:27:17.835Z,100964.78
2018-10-09T02:27:55.732Z,100965.83
2018-10-09T02:28:33.651Z,100973.91
2018-10-09T02:29:11.772Z,100969.45
2018-10-09T02:29:49.774Z,100975.09
2018-10-09T02:30:27.759Z,100972.02
2018-10-09T02:31:06.372Z,100975.72
2018-10-09T02:31:45.241Z,100972.93
2018-10-09T02:32:23.033Z,100970.39
2018-10-09T02:33:01.164Z,100971.36
2018-10-09T02:33:39.063Z,100972.96
2018-10-09T02:34:17.023Z,100974.77
2018-10-09T02:34:54.871Z,100969.57
2018-10-09T02:35:32.937Z,100974.45
2018-10-09T02:36:10.945Z,100967.90
2018-10-09T02:36:48.895Z,100970.23
2018-10-09T02:37:26.823Z,100967.52
2018-10-09T02:38:04.743Z,100963.92
2018-10-09T02:38:42.691Z,100962.80
2018-10-09T02:39:20.577Z,100963.36
2018-10-09T02:39:58.354Z,100962.17
2018-10-09T02:40:36.609Z,100962.59
2018-10-09T02:41:14.515Z,100962.54
2018-10-09T02:41:52.412Z,100963.83
2018-10-09T02:42:31.520Z,100962.02
2018-10-09T02:43:09.437Z,100960.33
2018-10-09T02:43:47.458Z,100961.69
2018-10-09T02:44:25.370Z,100965.50
2018-10-09T02:45:03.340Z,100961.44
2018-10-09T02:45:46.854Z,100958.93
2018-10-09T02:46:24.771Z,100961.75
2018-10-09T02:47:03.866Z,100961.77
2018-10-09T02:47:41.649Z,100963.66
2018-10-09T02:48:19.517Z,100959.60
2018-10-09T02:48:58.557Z,100959.14
2018-10-09T02:49:36.314Z,100957.70
2018-10-09T02:50:14.198Z,100964.14
2018-10-09T02:50:52.135Z,100963.02
2018-10-09T02:51:29.999Z,100964.48
2018-10-09T02:52:07.889Z,100962.97
2018-10-09T02:52:46.713Z,100962.66
2018-10-09T02:53:24.661Z,100961.42
2018-10-09T02:54:02.494Z,100962.63
2018-10-09T02:54:41.276Z,100963.88
2018-10-09T02:55:19.198Z,100961.16
2018-10-09T02:55:57.006Z,100956.69
2018-10-09T02:56:34.869Z,100956.05
2018-10-09T02:57:12.733Z,100962.45
2018-10-09T02:57:50.722Z,100961.61
2018-10-09T02:58:28.587Z,100958.64
2018-10-09T02:59:06.559Z,100962.89
2018-10-09T02:59:44.483Z,100956.17
2018-10-09T03:00:23.632Z,100962.09
2018-10-09T03:01:01.577Z,100964.64
2018-10-09T03:01:39.539Z,100960.73
2018-10-09T03:02:17.461Z,100961.45
2018-10-09T03:02:55.312Z,100960.81
2018-10-09T03:03:33.176Z,100961.45
2018-10-09T03:04:11.191Z,100963.22
2018-10-09T03:04:49.402Z,100964.77
2018-10-09T03:05:27.271Z,100960.53
2018-10-09T03:06:05.736Z,100958.45
2018-10-09T03:06:43.620Z,100960.30
2018-10-09T03:07:25.600Z,100963.17
2018-10-09T03:08:03.427Z,100961.81
2018-10-09T03:08:41.333Z,100961.17
2018-10-09T03:09:19.204Z,100963.49
2018-10-09T03:09:57.133Z,100958.32
2018-10-09T03:10:35.075Z,100962.88
2018-10-09T03:11:13.020Z,100958.56
2018-10-09T03:11:50.924Z,100963.49
2018-10-09T03:12:28.823Z,100951.63
2018-10-09T03:13:06.730Z,100957.31
2018-10-09T03:13:44.507Z,100953.94
2018-10-09T03:14:22.516Z,100951.38
2018-10-09T03:15:00.368Z,100946.73
2018-10-09T03:15:38.231Z,100944.02
2018-10-09T03:16:17.029Z,100947.05
2018-10-09T03:16:55.131Z,100949.03
2018-10-09T03:17:33.064Z,100951.84
2018-10-09T03:18:10.983Z,100947.62
2018-10-09T03:18:48.789Z,100948.34
2018-10-09T03:19:26.971Z,100945.14
2018-10-09T03:20:04.893Z,100945.20
2018-10-09T03:20:42.813Z,100947.05
2018-10-09T03:21:20.692Z,100951.92
2018-10-09T03:21:58.565Z,100945.27
2018-10-09T03:22:36.439Z,100945.75
2018-10-09T03:23:14.259Z,100948.00
2018-10-09T03:23:52.312Z,100942.55
2018-10-09T03:24:30.222Z,100938.70
2018-10-09T03:25:08.084Z,100941.58
2018-10-09T03:25:46.926Z,100942.50
2018-10-09T03:26:24.783Z,100944.81
2018-10-09T03:27:02.587Z,100939.84
2018-10-09T03:27:41.613Z,100946.17
2018-10-09T03:28:19.541Z,100939.03
2018-10-09T03:28:57.528Z,100945.22
2018-10-09T03:29:36.318Z,100942.97
2018-10-09T03:30:14.849Z,100944.58
2018-10-09T03:30:52.790Z,100934.48
2018-10-09T03:31:30.746Z,100935.93
2018-10-09T03:32:08.610Z,100930.25
2018-10-09T03:32:46.454Z,100938.41
2018-10-09T03:33:25.178Z,100935.80
2018-10-09T03:34:03.958Z,100931.53
2018-10-09T03:34:44.763Z,100934.72
2018-10-09T03:35:22.534Z,100932.41
2018-10-09T03:36:00.350Z,100931.91
2018-10-09T03:36:38.167Z,100933.24
2018-10-09T03:37:16.000Z,100926.61
2018-10-09T03:37:55.316Z,100936.89
2018-10-09T03:38:33.191Z,100931.86
2018-10-09T03:39:12.139Z,100933.38
2018-10-09T03:39:50.089Z,100930.25
2018-10-09T03:40:28.154Z,100929.34
2018-10-09T03:41:06.046Z,100927.89
2018-10-09T03:41:43.925Z,100928.02
2018-10-09T03:42:21.891Z,100930.64
2018-10-09T03:42:59.812Z,100925.33
2018-10-09T03:43:37.713Z,100931.52
2018-10-09T03:44:16.748Z,100922.62
2018-10-09T03:44:54.611Z,100922.50
2018-10-09T03:45:33.348Z,100918.52
2018-10-09T03:46:11.307Z,100913.80
2018-10-09T03:46:49.193Z,100910.70
2018-10-09T03:47:27.092Z,100908.56
2018-10-09T03:48:05.019Z,100905.91
2018-10-09T03:48:42.906Z,100911.19
2018-10-09T03:49:20.771Z,100910.36
2018-10-09T03:49:58.626Z,100908.86
2018-10-09T03:50:37.136Z,100898.68
2018-10-09T03:51:15.231Z,100901.47
2018-10-09T03:51:53.031Z,100904.52
2018-10-09T03:52:30.820Z,100901.05
2018-10-09T03:53:08.693Z,100901.77
2018-10-09T03:53:46.488Z,100902.03
2018-10-09T03:54:24.363Z,100897.33
2018-10-09T03:55:02.529Z,100894.25
2018-10-09T03:55:41.267Z,100897.45
2018-10-09T03:56:19.065Z,100896.08
2018-10-09T03:56:56.936Z,100886.67
2018-10-09T03:57:34.726Z,100889.21
2018-10-09T03:58:12.602Z,100885.84
2018-10-09T03:58:53.363Z,100884.85
2018-10-09T03:59:31.280Z,100892.05
2018-10-09T04:00:09.136Z,100888.20
2018-10-09T04:00:47.145Z,100886.91
2018-10-09T04:01:24.983Z,100886.26
2018-10-09T04:02:02.859Z,100888.56
2018-10-09T04:02:40.631Z,100889.13
2018-10-09T04:03:18.423Z,100887.30
2018-10-09T04:03:56.367Z,100882.88
2018-10-09T04:04:35.271Z,100883.44
2018-10-09T04:05:13.060Z,100882.69
2018-10-09T04:05:50.923Z,100877.94
2018-10-09T04:06:28.923Z,100877.55
2018-10-09T04:07:06.827Z,100875.56
2018-10-09T04:07:44.628Z,100884.67
2018-10-09T04:08:22.514Z,100884.72
2018-10-09T04:09:00.452Z,100874.75
2018-10-09T04:09:38.533Z,100872.72
2018-10-09T04:10:16.595Z,100875.12
2018-10-09T04:10:54.527Z,100878.41
2018-10-09T04:11:32.360Z,100873.45
2018-10-09T04:12:10.252Z,100875.55
2018-10-09T04:12:48.110Z,100874.94
2018-10-09T04:13:26.056Z,100868.75
2018-10-09T04:14:03.959Z,100868.25
2018-10-09T04:14:41.840Z,100868.75
2018-10-09T04:15:19.788Z,100868.75
2018-10-09T04:15:57.704Z,100868.42
2018-10-09T04:16:35.573Z,100869.84
2018-10-09T04:17:13.359Z,100868.25
2018-10-09T04:17:51.308Z,100863.42
2018-10-09T04:18:29.152Z,100865.52
2018-10-09T04:19:07.027Z,100869.38
2018-10-09T04:19:44.936Z,100869.84
2018-10-09T04:20:22.777Z,100865.76
2018-10-09T04:21:00.784Z,100870.34
2018-10-09T04:21:38.986Z,100861.94
2018-10-09T04:22:20.911Z,100867.69
2018-10-09T04:22:58.739Z,100863.66
2018-10-09T04:23:36.616Z,100859.84
2018-10-09T04:24:14.543Z,100857.11
2018-10-09T04:24:52.780Z,100856.22
2018-10-09T04:25:30.657Z,100858.78
2018-10-09T04:26:08.562Z,100859.02
2018-10-09T04:26:46.506Z,100859.72
2018-10-09T04:27:24.700Z,100854.64
2018-10-09T04:28:02.545Z,100857.36
2018-10-09T04:28:40.957Z,100855.44
2018-10-09T04:29:18.898Z,100852.84
2018-10-09T04:29:56.733Z,100855.50
2018-10-09T04:30:34.665Z,100857.97
2018-10-09T04:31:12.744Z,100848.92
2018-10-09T04:31:56.742Z,100846.20
2018-10-09T04:32:34.751Z,100846.92
2018-10-09T04:33:12.596Z,100847.22
2018-10-09T04:33:50.625Z,100846.21
2018-10-09T04:34:28.501Z,100839.56
2018-10-09T04:35:06.340Z,100835.90
2018-10-09T04:35:44.257Z,100838.48
2018-10-09T04:36:22.186Z,100831.72
2018-10-09T04:37:01.135Z,100832.05
2018-10-09T04:37:39.126Z,100826.20
2018-10-09T04:38:17.077Z,100823.23
2018-10-09T04:38:55.060Z,100824.31
2018-10-09T04:39:33.078Z,100821.45
2018-10-09T04:40:11.086Z,100827.37
2018-10-09T04:40:48.928Z,100825.78
2018-10-09T04:41:26.725Z,100826.87
2018-10-09T04:42:04.521Z,100824.25
2018-10-09T04:42:42.354Z,100825.28
2018-10-09T04:43:20.286Z,100822.56
2018-10-09T04:43:58.098Z,100818.47
2018-10-09T04:44:36.423Z,100821.85
2018-10-09T04:45:14.247Z,100822.56
2018-10-09T04:45:52.547Z,100813.68
2018-10-09T04:46:30.451Z,100813.92
2018-10-09T04:47:08.427Z,100815.98
2018-10-09T04:47:46.258Z,100807.02
2018-10-09T04:48:24.253Z,100810.54
2018-10-09T04:49:02.272Z,100803.27
2018-10-09T04:49:40.203Z,100811.66
2018-10-09T04:50:18.142Z,100799.97
2018-10-09T04:50:56.099Z,100805.98
2018-10-09T04:51:34.580Z,100801.91
2018-10-09T04:52:12.467Z,100801.34
2018-10-09T04:52:50.341Z,100803.17
2018-10-09T04:53:28.263Z,100798.70
2018-10-09T04:54:06.163Z,100800.54
2018-10-09T04:54:44.120Z,100802.64
2018-10-09T04:55:21.969Z,100800.32
2018-10-09T04:55:59.905Z,100803.84
2018-10-09T04:56:37.807Z,100802.72
2018-10-09T04:57:16.020Z,100799.52
2018-10-09T04:57:55.002Z,100799.76
2018-10-09T04:58:32.913Z,100796.47
2018-10-09T04:59:10.801Z,100796.47
2018-10-09T04:59:48.546Z,100794.69
2018-10-09T05:00:26.512Z,100791.16
2018-10-09T05:01:04.279Z,100796.19
2018-10-09T05:01:42.366Z,100791.40
2018-10-09T05:02:20.476Z,100794.78
2018-10-09T05:02:58.578Z,100791.18
2018-10-09T05:03:36.419Z,100790.53
2018-10-09T05:04:14.369Z,100789.59
2018-10-09T05:04:52.250Z,100786.73
2018-10-09T05:05:31.055Z,100783.86
2018-10-09T05:06:09.492Z,100791.89
2018-10-09T05:06:47.452Z,100789.23
2018-10-09T05:07:25.255Z,100794.20
2018-10-09T05:08:03.072Z,100788.61
2018-10-09T05:08:40.957Z,100792.73
2018-10-09T05:09:20.473Z,100787.13
2018-10-09T05:09:59.590Z,100785.92
2018-10-09T05:10:37.586Z,100784.17
2018-10-09T05:11:15.459Z,100787.28
2018-10-09T05:11:53.348Z,100787.13
2018-10-09T05:12:31.153Z,100785.62
2018-10-09T05:13:09.171Z,100782.42
2018-10-09T05:13:47.030Z,100778.72
2018-10-09T05:14:25.105Z,100775.29
2018-10-09T05:15:02.929Z,100772.74
2018-10-09T05:15:40.802Z,100778.83
2018-10-09T05:16:18.729Z,100776.19
2018-10-09T05:16:57.516Z,100773.31
2018-10-09T05:17:35.446Z,100772.61
2018-10-09T05:18:13.327Z,100766.42
2018-10-09T05:18:51.220Z,100776.82
2018-10-09T05:19:29.078Z,100766.35
2018-10-09T05:20:07.408Z,100765.64
2018-10-09T05:20:45.407Z,100770.56
2018-10-09T05:21:23.311Z,100763.13
2018-10-09T05:22:01.202Z,100767.53
2018-10-09T05:22:39.086Z,100769.83
2018-10-09T05:23:16.910Z,100767.98
2018-10-09T05:23:55.801Z,100764.23
2018-10-09T05:24:35.031Z,100763.44
2018-10-09T05:25:13.121Z,100763.27
2018-10-09T05:25:50.977Z,100762.80
2018-10-09T05:26:28.932Z,100762.87
2018-10-09T05:27:06.858Z,100755.69
2018-10-09T05:27:44.695Z,100756.33
2018-10-09T05:28:22.513Z,100759.41
2018-10-09T05:29:00.373Z,100757.33
2018-10-09T05:29:39.214Z,100750.06
2018-10-09T05:30:17.003Z,100752.05
2018-10-09T05:30:55.128Z,100747.27
2018-10-09T05:31:32.963Z,100749.50
2018-10-09T05:32:10.989Z,100747.15
2018-10-09T05:32:48.767Z,100738.16
2018-10-09T05:33:26.614Z,100740.64
2018-10-09T05:34:04.537Z,100738.00
2018-10-09T05:34:42.444Z,100732.64
2018-10-09T05:35:20.319Z,100732.48
2018-10-09T05:35:59.236Z,100728.00
2018-10-09T05:36:37.048Z,100727.77
2018-10-09T05:37:14.899Z,100725.65
2018-10-09T05:37:53.126Z,100724.20
2018-10-09T05:38:31.006Z,100720.28
2018-10-09T05:39:09.968Z,100723.48
2018-10-09T05:39:47.851Z,100720.67
2018-10-09T05:40:25.780Z,100720.98
2018-10-09T05:41:03.670Z,100716.75
2018-10-09T05:41:41.627Z,100716.23
2018-10-09T05:42:19.577Z,100713.00
2018-10-09T05:42:57.492Z,100717.22
2018-10-09T05:43:35.403Z,100715.38
2018-10-09T05:44:13.340Z,100710.34
2018-10-09T05:44:51.338Z,100713.12
2018-10-09T05:45:29.713Z,100711.36
2018-10-09T05:46:07.560Z,100705.80
2018-10-09T05:46:45.447Z,100706.12
2018-10-09T05:47:23.343Z,100703.48
2018-10-09T05:48:01.172Z,100702.99
2018-10-09T05:48:38.944Z,100700.91
2018-10-09T05:49:16.841Z,100699.30
2018-10-09T05:49:54.975Z,100703.13
2018-10-09T05:50:32.997Z,100692.35
2018-10-09T05:51:11.364Z,100689.88
2018-10-09T05:51:49.228Z,100692.04
2018-10-09T05:52:27.183Z,100687.73
2018-10-09T05:53:05.059Z,100693.08
2018-10-09T05:53:43.633Z,100692.21
2018-10-09T05:54:21.569Z,100683.52
2018-10-09T05:54:59.492Z,100686.40
2018-10-09T05:55:38.076Z,100686.08
2018-10-09T05:56:16.316Z,100682.48
2018-10-09T05:56:54.358Z,100684.75
2018-10-09T05:57:32.299Z,100678.75
2018-10-09T05:58:10.468Z,100680.63
2018-10-09T05:58:48.438Z,100678.23
2018-10-09T05:59:27.207Z,100676.32
2018-10-09T06:00:05.102Z,100681.19
2018-10-09T06:00:43.099Z,100669.81
2018-10-09T06:01:22.023Z,100668.87
2018-10-09T06:01:59.965Z,100671.45
2018-10-09T06:02:37.902Z,100665.86
2018-10-09T06:03:15.813Z,100665.44
2018-10-09T06:03:53.653Z,100672.62
2018-10-09T06:04:31.570Z,100667.10
2018-10-09T06:05:09.456Z,100659.83
2018-10-09T06:05:48.559Z,100656.64
2018-10-09T06:07:09.307Z,100660.55
2018-10-09T06:07:47.296Z,100659.04
2018-10-09T06:08:25.259Z,100651.22
2018-10-09T06:09:03.247Z,100652.09
2018-10-09T06:09:41.660Z,100652.72
2018-10-09T06:10:19.444Z,100642.98
2018-10-09T06:10:57.325Z,100641.63
2018-10-09T06:11:35.190Z,100643.95
2018-10-09T06:12:13.125Z,100641.23
2018-10-09T06:12:50.990Z,100644.02
2018-10-09T06:13:28.792Z,100642.91
2018-10-09T06:14:06.899Z,100634.77
2018-10-09T06:14:44.904Z,100639.88
2018-10-09T06:15:22.899Z,100638.28
2018-10-09T06:16:00.765Z,100634.69
2018-10-09T06:16:38.727Z,100627.11
2018-10-09T06:17:16.620Z,100632.22
2018-10-09T06:17:54.429Z,100627.91
2018-10-09T06:18:32.198Z,100627.91
2018-10-09T06:19:10.097Z,100627.03
2018-10-09T06:19:47.954Z,100628.38
2018-10-09T06:20:26.707Z,100621.52
2018-10-09T06:21:04.652Z,100623.75
2018-10-09T06:21:42.636Z,100621.59
2018-10-09T06:22:20.562Z,100623.75
2018-10-09T06:22:58.491Z,100620.55
2018-10-09T06:23:37.036Z,100623.27
2018-10-09T06:24:15.009Z,100615.12
2018-10-09T06:24:54.065Z,100620.55
2018-10-09T06:25:31.967Z,100624.63
2018-10-09T06:26:09.767Z,100615.12
2018-10-09T06:26:47.733Z,100620.55
2018-10-09T06:27:25.601Z,100616.16
2018-10-09T06:28:03.428Z,100621.34
2018-10-09T06:28:41.263Z,100617.84
2018-10-09T06:29:19.145Z,100614.33
2018-10-09T06:29:57.079Z,100611.92
2018-10-09T06:30:36.170Z,100613.92
2018-10-09T06:31:14.201Z,100606.58
2018-10-09T06:31:52.051Z,100607.38
2018-10-09T06:32:31.167Z,100607.38
2018-10-09T06:33:09.202Z,100606.34
2018-10-09T06:33:52.418Z,100612.32
2018-10-09T06:34:30.247Z,100605.02
2018-10-09T06:35:08.217Z,100598.32
2018-10-09T06:35:46.077Z,100601.34
2018-10-09T06:36:24.010Z,100598.16
2018-10-09T06:37:01.962Z,100602.30
2018-10-09T06:37:40.670Z,100599.66
2018-10-09T06:38:18.846Z,100606.20
2018-10-09T06:38:56.741Z,100597.02
2018-10-09T06:39:34.601Z,100598.38
2018-10-09T06:40:12.463Z,100600.37
2018-10-09T06:40:50.299Z,100599.81
2018-10-09T06:41:28.400Z,100601.17
2018-10-09T06:42:06.395Z,100598.45
2018-10-09T06:42:44.270Z,100597.02
2018-10-09T06:43:22.391Z,100592.40
2018-10-09T06:44:00.335Z,100594.55
2018-10-09T06:44:38.249Z,100592.40
2018-10-09T06:45:16.103Z,100585.93
2018-10-09T06:45:53.904Z,100581.79
2018-10-09T06:46:31.945Z,100590.17
2018-10-09T06:47:10.071Z,100580.28
2018-10-09T06:47:47.913Z,100585.80
2018-10-09T06:48:25.920Z,100575.78
2018-10-09T06:49:03.764Z,100573.95
2018-10-09T06:49:41.739Z,100575.60
2018-10-09T06:50:19.549Z,100573.84
2018-10-09T06:50:57.478Z,100573.69
2018-10-09T06:51:35.349Z,100569.37
2018-10-09T06:52:14.810Z,100572.42
2018-10-09T06:52:52.736Z,100564.51
2018-10-09T06:53:30.622Z,100560.66
2018-10-09T06:54:08.578Z,100556.63
2018-10-09T06:54:46.615Z,100559.48
2018-10-09T06:55:24.608Z,100559.55
2018-10-09T06:56:02.604Z,100555.72
2018-10-09T06:56:40.396Z,100552.67
2018-10-09T06:57:18.840Z,100560.50
2018-10-09T06:57:56.899Z,100556.75
2018-10-09T06:58:35.587Z,100553.65
2018-10-09T06:59:13.430Z,100548.45
2018-10-09T06:59:51.280Z,100542.78
2018-10-09T07:00:29.383Z,100540.53
2018-10-09T07:01:07.248Z,100540.92
2018-10-09T07:01:45.176Z,100541.86
2018-10-09T07:02:27.450Z,100540.23
2018-10-09T07:03:06.330Z,100536.23
2018-10-09T07:03:44.281Z,100534.93
2018-10-09T07:04:22.135Z,100531.49
2018-10-09T07:04:59.968Z,100531.72
2018-10-09T07:05:37.836Z,100527.68
2018-10-09T07:06:16.445Z,100527.63
2018-10-09T07:06:54.364Z,100521.66
2018-10-09T07:07:32.490Z,100521.73
2018-10-09T07:08:10.570Z,100517.92
2018-10-09T07:08:48.476Z,100522.64
2018-10-09T07:09:26.376Z,100513.97
2018-10-09T07:10:04.278Z,100513.31
2018-10-09T07:10:41.994Z,100518.88
2018-10-09T07:11:20.057Z,100512.08
2018-10-09T07:11:58.235Z,100510.42
2018-10-09T07:12:36.018Z,100512.23
2018-10-09T07:13:13.962Z,100503.12
2018-10-09T07:13:54.105Z,100502.36
2018-10-09T07:14:31.928Z,100503.52
2018-10-09T07:15:09.869Z,100505.65
2018-10-09T07:15:48.142Z,100505.84
2018-10-09T07:16:26.764Z,100504.64
2018-10-09T07:17:04.604Z,100501.00
2018-10-09T07:17:42.616Z,100499.91
2018-10-09T07:18:20.484Z,100495.83